sensor_id;sensor_type;location;lat;lon;timestamp;temperature;humidity
13848;DHT22;6994;49.752;6.094;2023-04-29T00:00:18;13.60;99.90
13848;DHT22;6994;49.752;6.094;2023-04-29T00:02:45;13.60;99.90
13848;DHT22;6994;49.752;6.094;2023-04-29T00:05:12;13.60;99.90
13848;DHT22;6994;49.752;6.094;2023-04-29T00:07:40;13.60;99.90
13848;DHT22;6994;49.752;6.094;2023-04-29T00:10:08;13.60;99.90
13848;DHT22;6994;49.752;6.094;2023-04-29T00:12:36;13.60;99.90
13848;DHT22;6994;49.752;6.094;2023-04-29T00:15:03;13.60;99.90
13848;DHT22;6994;49.752;6.094;2023-04-29T00:17:30;13.60;99.90
13848;DHT22;6994;49.752;6.094;2023-04-29T00:19:57;13.70;99.90
13848;DHT22;6994;49.752;6.094;2023-04-29T00:22:25;13.70;99.90
13848;DHT22;6994;49.752;6.094;2023-04-29T00:24:52;13.80;99.90
13848;DHT22;6994;49.752;6.094;2023-04-29T00:27:19;13.90;99.90
13848;DHT22;6994;49.752;6.094;2023-04-29T00:29:46;13.80;99.90
13848;DHT22;6994;49.752;6.094;2023-04-29T00:32:13;13.70;99.90
13848;DHT22;6994;49.752;6.094;2023-04-29T00:34:41;13.50;99.90
13848;DHT22;6994;49.752;6.094;2023-04-29T00:37:09;13.50;99.90
13848;DHT22;6994;49.752;6.094;2023-04-29T00:39:37;13.40;99.90
13848;DHT22;6994;49.752;6.094;2023-04-29T00:42:05;13.20;99.90
13848;DHT22;6994;49.752;6.094;2023-04-29T00:44:32;13.20;99.90
13848;DHT22;6994;49.752;6.094;2023-04-29T00:47:00;13.10;99.90
13848;DHT22;6994;49.752;6.094;2023-04-29T00:49:27;13.00;99.90
13848;DHT22;6994;49.752;6.094;2023-04-29T00:51:55;12.90;99.90
13848;DHT22;6994;49.752;6.094;2023-04-29T00:54:21;12.80;99.90
13848;DHT22;6994;49.752;6.094;2023-04-29T00:56:49;12.80;99.90
13848;DHT22;6994;49.752;6.094;2023-04-29T00:59:16;12.70;99.90
13848;DHT22;6994;49.752;6.094;2023-04-29T01:01:43;12.90;99.90
13848;DHT22;6994;49.752;6.094;2023-04-29T01:04:10;12.90;99.90
13848;DHT22;6994;49.752;6.094;2023-04-29T01:07:04;12.90;99.90
13848;DHT22;6994;49.752;6.094;2023-04-29T01:09:47;12.90;99.90
13848;DHT22;6994;49.752;6.094;2023-04-29T01:14:53;12.70;99.90
13848;DHT22;6994;49.752;6.094;2023-04-29T01:17:21;12.70;99.90
13848;DHT22;6994;49.752;6.094;2023-04-29T01:19:49;12.60;99.90
13848;DHT22;6994;49.752;6.094;2023-04-29T01:22:14;12.80;99.90
13848;DHT22;6994;49.752;6.094;2023-04-29T01:24:42;12.80;99.90
13848;DHT22;6994;49.752;6.094;2023-04-29T01:27:20;13.00;99.90
13848;DHT22;6994;49.752;6.094;2023-04-29T01:29:43;13.00;99.90
13848;DHT22;6994;49.752;6.094;2023-04-29T01:32:11;12.90;99.90
13848;DHT22;6994;49.752;6.094;2023-04-29T01:35:00;12.80;99.90
13848;DHT22;6994;49.752;6.094;2023-04-29T01:37:32;12.80;99.90
13848;DHT22;6994;49.752;6.094;2023-04-29T01:42:50;13.30;99.90
13848;DHT22;6994;49.752;6.094;2023-04-29T01:45:16;13.20;99.90
13848;DHT22;6994;49.752;6.094;2023-04-29T01:47:43;13.10;99.90
13848;DHT22;6994;49.752;6.094;2023-04-29T01:50:10;13.10;99.90
13848;DHT22;6994;49.752;6.094;2023-04-29T01:52:37;13.00;99.90
13848;DHT22;6994;49.752;6.094;2023-04-29T01:55:05;13.20;99.90
13848;DHT22;6994;49.752;6.094;2023-04-29T01:57:32;13.20;99.90
13848;DHT22;6994;49.752;6.094;2023-04-29T01:59:59;13.10;99.90
13848;DHT22;6994;49.752;6.094;2023-04-29T02:02:26;13.10;99.90
13848;DHT22;6994;49.752;6.094;2023-04-29T02:04:53;13.00;99.90
13848;DHT22;6994;49.752;6.094;2023-04-29T02:07:21;12.90;99.90
13848;DHT22;6994;49.752;6.094;2023-04-29T02:09:49;12.90;99.90
13848;DHT22;6994;49.752;6.094;2023-04-29T02:12:18;12.90;99.90
13848;DHT22;6994;49.752;6.094;2023-04-29T02:14:45;12.80;99.90
13848;DHT22;6994;49.752;6.094;2023-04-29T02:17:13;12.80;99.90
13848;DHT22;6994;49.752;6.094;2023-04-29T02:19:40;12.80;99.90
13848;DHT22;6994;49.752;6.094;2023-04-29T02:22:08;12.80;99.90
13848;DHT22;6994;49.752;6.094;2023-04-29T02:24:35;12.80;99.90
13848;DHT22;6994;49.752;6.094;2023-04-29T02:27:02;13.00;99.90
13848;DHT22;6994;49.752;6.094;2023-04-29T02:29:29;13.00;99.90
13848;DHT22;6994;49.752;6.094;2023-04-29T02:31:57;13.20;99.90
13848;DHT22;6994;49.752;6.094;2023-04-29T02:34:24;13.20;99.90
13848;DHT22;6994;49.752;6.094;2023-04-29T02:36:51;13.40;99.90
13848;DHT22;6994;49.752;6.094;2023-04-29T02:39:18;13.30;99.90
13848;DHT22;6994;49.752;6.094;2023-04-29T02:41:45;13.30;99.90
13848;DHT22;6994;49.752;6.094;2023-04-29T02:44:13;13.10;99.90
13848;DHT22;6994;49.752;6.094;2023-04-29T02:46:41;13.20;99.90
13848;DHT22;6994;49.752;6.094;2023-04-29T02:49:08;13.10;99.90
13848;DHT22;6994;49.752;6.094;2023-04-29T02:51:36;13.10;99.90
13848;DHT22;6994;49.752;6.094;2023-04-29T02:54:04;13.00;99.90
13848;DHT22;6994;49.752;6.094;2023-04-29T02:56:32;12.90;99.90
13848;DHT22;6994;49.752;6.094;2023-04-29T02:59:00;12.90;99.90
13848;DHT22;6994;49.752;6.094;2023-04-29T03:01:28;12.80;99.90
13848;DHT22;6994;49.752;6.094;2023-04-29T03:03:55;12.80;99.90
13848;DHT22;6994;49.752;6.094;2023-04-29T03:06:22;12.70;99.90
13848;DHT22;6994;49.752;6.094;2023-04-29T03:08:49;12.70;99.90
13848;DHT22;6994;49.752;6.094;2023-04-29T03:11:16;12.70;99.90
13848;DHT22;6994;49.752;6.094;2023-04-29T03:13:44;12.70;99.90
13848;DHT22;6994;49.752;6.094;2023-04-29T03:16:11;12.60;99.90
13848;DHT22;6994;49.752;6.094;2023-04-29T03:18:43;12.60;99.90
13848;DHT22;6994;49.752;6.094;2023-04-29T03:21:11;12.60;99.90
13848;DHT22;6994;49.752;6.094;2023-04-29T03:23:38;12.60;99.90
13848;DHT22;6994;49.752;6.094;2023-04-29T03:26:05;12.60;99.90
13848;DHT22;6994;49.752;6.094;2023-04-29T03:28:32;12.60;99.90
13848;DHT22;6994;49.752;6.094;2023-04-29T03:30:59;12.60;99.90
13848;DHT22;6994;49.752;6.094;2023-04-29T03:33:27;12.60;99.90
13848;DHT22;6994;49.752;6.094;2023-04-29T03:35:55;12.60;99.90
13848;DHT22;6994;49.752;6.094;2023-04-29T03:38:23;12.50;99.90
13848;DHT22;6994;49.752;6.094;2023-04-29T03:40:51;12.50;99.90
13848;DHT22;6994;49.752;6.094;2023-04-29T03:43:19;12.50;99.90
13848;DHT22;6994;49.752;6.094;2023-04-29T03:45:47;12.50;99.90
13848;DHT22;6994;49.752;6.094;2023-04-29T03:48:14;12.50;99.90
13848;DHT22;6994;49.752;6.094;2023-04-29T03:50:41;12.50;99.90
13848;DHT22;6994;49.752;6.094;2023-04-29T03:53:08;12.50;99.90
13848;DHT22;6994;49.752;6.094;2023-04-29T03:55:35;12.50;99.90
13848;DHT22;6994;49.752;6.094;2023-04-29T03:58:03;12.50;99.90
13848;DHT22;6994;49.752;6.094;2023-04-29T04:00:30;12.50;99.90
13848;DHT22;6994;49.752;6.094;2023-04-29T04:02:58;12.50;99.90
13848;DHT22;6994;49.752;6.094;2023-04-29T04:05:26;12.50;99.90
13848;DHT22;6994;49.752;6.094;2023-04-29T04:07:53;12.40;99.90
13848;DHT22;6994;49.752;6.094;2023-04-29T04:10:20;12.40;99.90
13848;DHT22;6994;49.752;6.094;2023-04-29T04:12:47;12.40;99.90
13848;DHT22;6994;49.752;6.094;2023-04-29T04:15:15;12.40;99.90
13848;DHT22;6994;49.752;6.094;2023-04-29T04:17:42;12.40;99.90
13848;DHT22;6994;49.752;6.094;2023-04-29T04:20:09;12.60;99.90
13848;DHT22;6994;49.752;6.094;2023-04-29T04:22:36;12.70;99.90
13848;DHT22;6994;49.752;6.094;2023-04-29T04:25:04;12.70;99.90
13848;DHT22;6994;49.752;6.094;2023-04-29T04:27:31;12.70;99.90
13848;DHT22;6994;49.752;6.094;2023-04-29T04:29:58;12.60;99.90
13848;DHT22;6994;49.752;6.094;2023-04-29T04:32:25;12.60;99.90
13848;DHT22;6994;49.752;6.094;2023-04-29T04:34:52;12.50;99.90
13848;DHT22;6994;49.752;6.094;2023-04-29T04:37:20;12.70;99.90
13848;DHT22;6994;49.752;6.094;2023-04-29T04:39:47;12.80;99.90
13848;DHT22;6994;49.752;6.094;2023-04-29T04:42:14;13.00;99.90
13848;DHT22;6994;49.752;6.094;2023-04-29T04:44:41;13.00;99.90
13848;DHT22;6994;49.752;6.094;2023-04-29T04:47:09;12.80;99.90
13848;DHT22;6994;49.752;6.094;2023-04-29T04:49:37;12.70;99.90
13848;DHT22;6994;49.752;6.094;2023-04-29T04:52:05;12.60;99.90
13848;DHT22;6994;49.752;6.094;2023-04-29T04:54:33;12.50;99.90
13848;DHT22;6994;49.752;6.094;2023-04-29T04:57:01;12.50;99.90
13848;DHT22;6994;49.752;6.094;2023-04-29T04:59:28;12.50;99.90
13848;DHT22;6994;49.752;6.094;2023-04-29T05:01:55;12.50;99.90
13848;DHT22;6994;49.752;6.094;2023-04-29T05:04:23;12.40;99.90
13848;DHT22;6994;49.752;6.094;2023-04-29T05:06:50;12.30;99.90
13848;DHT22;6994;49.752;6.094;2023-04-29T05:09:17;12.30;99.90
13848;DHT22;6994;49.752;6.094;2023-04-29T05:11:44;12.20;99.90
13848;DHT22;6994;49.752;6.094;2023-04-29T05:14:12;12.20;99.90
13848;DHT22;6994;49.752;6.094;2023-04-29T05:16:39;12.20;99.90
13848;DHT22;6994;49.752;6.094;2023-04-29T05:19:06;12.40;99.90
13848;DHT22;6994;49.752;6.094;2023-04-29T05:21:33;12.50;99.90
13848;DHT22;6994;49.752;6.094;2023-04-29T05:24:01;12.70;99.90
13848;DHT22;6994;49.752;6.094;2023-04-29T05:26:29;12.60;99.90
13848;DHT22;6994;49.752;6.094;2023-04-29T05:28:57;12.60;99.90
13848;DHT22;6994;49.752;6.094;2023-04-29T05:31:24;12.60;99.90
13848;DHT22;6994;49.752;6.094;2023-04-29T05:33:51;12.50;99.90
13848;DHT22;6994;49.752;6.094;2023-04-29T05:36:19;12.40;99.90
13848;DHT22;6994;49.752;6.094;2023-04-29T05:38:47;12.80;99.90
13848;DHT22;6994;49.752;6.094;2023-04-29T05:41:15;12.80;99.90
13848;DHT22;6994;49.752;6.094;2023-04-29T05:43:43;12.70;99.90
13848;DHT22;6994;49.752;6.094;2023-04-29T05:46:10;12.70;99.90
13848;DHT22;6994;49.752;6.094;2023-04-29T05:48:37;12.60;99.90
13848;DHT22;6994;49.752;6.094;2023-04-29T05:51:04;12.50;99.90
13848;DHT22;6994;49.752;6.094;2023-04-29T05:53:32;12.30;99.90
13848;DHT22;6994;49.752;6.094;2023-04-29T05:56:00;12.30;99.90
13848;DHT22;6994;49.752;6.094;2023-04-29T05:58:27;12.30;99.90
13848;DHT22;6994;49.752;6.094;2023-04-29T06:00:55;12.30;99.90
13848;DHT22;6994;49.752;6.094;2023-04-29T06:03:22;12.30;99.90
13848;DHT22;6994;49.752;6.094;2023-04-29T06:05:51;12.50;99.90
13848;DHT22;6994;49.752;6.094;2023-04-29T06:08:18;12.50;99.90
13848;DHT22;6994;49.752;6.094;2023-04-29T06:10:45;12.50;99.90
13848;DHT22;6994;49.752;6.094;2023-04-29T06:13:12;12.50;99.90
13848;DHT22;6994;49.752;6.094;2023-04-29T06:15:39;12.50;99.90
13848;DHT22;6994;49.752;6.094;2023-04-29T06:18:07;12.40;99.90
13848;DHT22;6994;49.752;6.094;2023-04-29T06:20:34;12.40;99.90
13848;DHT22;6994;49.752;6.094;2023-04-29T06:23:01;12.70;99.90
13848;DHT22;6994;49.752;6.094;2023-04-29T06:25:28;12.70;99.90
13848;DHT22;6994;49.752;6.094;2023-04-29T06:27:56;12.70;99.90
13848;DHT22;6994;49.752;6.094;2023-04-29T06:30:23;12.70;99.90
13848;DHT22;6994;49.752;6.094;2023-04-29T06:32:51;12.70;99.90
13848;DHT22;6994;49.752;6.094;2023-04-29T06:35:18;12.60;99.90
13848;DHT22;6994;49.752;6.094;2023-04-29T06:37:45;12.60;99.90
13848;DHT22;6994;49.752;6.094;2023-04-29T06:40:12;12.60;99.90
13848;DHT22;6994;49.752;6.094;2023-04-29T06:42:40;12.80;99.90
13848;DHT22;6994;49.752;6.094;2023-04-29T06:45:08;12.80;99.90
13848;DHT22;6994;49.752;6.094;2023-04-29T06:47:35;12.80;99.90
13848;DHT22;6994;49.752;6.094;2023-04-29T06:50:03;12.80;99.90
13848;DHT22;6994;49.752;6.094;2023-04-29T06:52:30;12.80;99.90
13848;DHT22;6994;49.752;6.094;2023-04-29T06:54:57;12.70;99.90
13848;DHT22;6994;49.752;6.094;2023-04-29T06:57:24;12.70;99.90
13848;DHT22;6994;49.752;6.094;2023-04-29T06:59:52;12.70;99.90
13848;DHT22;6994;49.752;6.094;2023-04-29T07:02:19;12.70;99.90
13848;DHT22;6994;49.752;6.094;2023-04-29T07:04:47;12.70;99.90
13848;DHT22;6994;49.752;6.094;2023-04-29T07:07:15;12.70;99.90
13848;DHT22;6994;49.752;6.094;2023-04-29T07:09:43;12.70;99.90
13848;DHT22;6994;49.752;6.094;2023-04-29T07:12:10;12.70;99.90
13848;DHT22;6994;49.752;6.094;2023-04-29T07:14:37;13.00;99.90
13848;DHT22;6994;49.752;6.094;2023-04-29T07:17:05;13.10;99.90
13848;DHT22;6994;49.752;6.094;2023-04-29T07:19:32;13.00;99.90
13848;DHT22;6994;49.752;6.094;2023-04-29T07:21:59;13.00;99.90
13848;DHT22;6994;49.752;6.094;2023-04-29T07:24:26;13.20;99.90
13848;DHT22;6994;49.752;6.094;2023-04-29T07:26:53;13.20;99.90
13848;DHT22;6994;49.752;6.094;2023-04-29T07:29:21;13.10;99.90
13848;DHT22;6994;49.752;6.094;2023-04-29T07:31:49;13.10;99.90
13848;DHT22;6994;49.752;6.094;2023-04-29T07:34:16;13.00;99.90
13848;DHT22;6994;49.752;6.094;2023-04-29T07:36:43;12.90;99.90
13848;DHT22;6994;49.752;6.094;2023-04-29T07:39:10;13.10;99.90
13848;DHT22;6994;49.752;6.094;2023-04-29T07:41:37;13.10;99.90
13848;DHT22;6994;49.752;6.094;2023-04-29T07:44:05;13.30;99.90
13848;DHT22;6994;49.752;6.094;2023-04-29T07:46:32;13.20;99.90
13848;DHT22;6994;49.752;6.094;2023-04-29T07:48:59;13.10;99.90
13848;DHT22;6994;49.752;6.094;2023-04-29T07:51:26;13.00;99.90
13848;DHT22;6994;49.752;6.094;2023-04-29T07:53:54;12.80;99.90
13848;DHT22;6994;49.752;6.094;2023-04-29T07:56:21;12.80;99.90
13848;DHT22;6994;49.752;6.094;2023-04-29T07:58:49;12.80;99.90
13848;DHT22;6994;49.752;6.094;2023-04-29T08:01:16;12.80;99.90
13848;DHT22;6994;49.752;6.094;2023-04-29T08:03:43;12.80;99.90
13848;DHT22;6994;49.752;6.094;2023-04-29T08:06:10;12.80;99.90
13848;DHT22;6994;49.752;6.094;2023-04-29T08:08:37;13.00;99.90
13848;DHT22;6994;49.752;6.094;2023-04-29T08:11:05;13.10;99.90
13848;DHT22;6994;49.752;6.094;2023-04-29T08:13:32;13.10;99.90
13848;DHT22;6994;49.752;6.094;2023-04-29T08:15:59;13.10;99.90
13848;DHT22;6994;49.752;6.094;2023-04-29T08:18:26;13.20;99.90
13848;DHT22;6994;49.752;6.094;2023-04-29T08:20:53;13.20;99.90
13848;DHT22;6994;49.752;6.094;2023-04-29T08:23:21;13.30;99.90
13848;DHT22;6994;49.752;6.094;2023-04-29T08:25:49;13.30;99.90
13848;DHT22;6994;49.752;6.094;2023-04-29T08:28:17;13.30;99.90
13848;DHT22;6994;49.752;6.094;2023-04-29T08:30:44;13.30;99.90
13848;DHT22;6994;49.752;6.094;2023-04-29T08:33:11;13.40;99.90
13848;DHT22;6994;49.752;6.094;2023-04-29T08:35:38;13.40;99.90
13848;DHT22;6994;49.752;6.094;2023-04-29T08:38:06;13.40;99.90
13848;DHT22;6994;49.752;6.094;2023-04-29T08:40:33;13.60;99.90
13848;DHT22;6994;49.752;6.094;2023-04-29T08:43:00;13.60;99.90
13848;DHT22;6994;49.752;6.094;2023-04-29T08:45:27;13.70;99.90
13848;DHT22;6994;49.752;6.094;2023-04-29T08:47:54;14.00;99.90
13848;DHT22;6994;49.752;6.094;2023-04-29T08:50:22;14.10;99.90
13848;DHT22;6994;49.752;6.094;2023-04-29T08:52:49;14.10;99.90
13848;DHT22;6994;49.752;6.094;2023-04-29T08:55:17;14.00;99.90
13848;DHT22;6994;49.752;6.094;2023-04-29T08:57:45;14.30;99.90
13848;DHT22;6994;49.752;6.094;2023-04-29T09:00:12;14.20;99.90
13848;DHT22;6994;49.752;6.094;2023-04-29T09:02:44;14.20;99.90
13848;DHT22;6994;49.752;6.094;2023-04-29T09:05:10;14.10;99.90
13848;DHT22;6994;49.752;6.094;2023-04-29T09:07:37;14.10;99.90
13848;DHT22;6994;49.752;6.094;2023-04-29T09:10:04;14.10;99.90
13848;DHT22;6994;49.752;6.094;2023-04-29T09:12:32;14.10;99.90
13848;DHT22;6994;49.752;6.094;2023-04-29T09:14:59;14.20;99.90
13848;DHT22;6994;49.752;6.094;2023-04-29T09:17:45;14.20;99.90
13848;DHT22;6994;49.752;6.094;2023-04-29T09:25:18;14.40;99.90
13848;DHT22;6994;49.752;6.094;2023-04-29T09:27:45;14.30;99.90
13848;DHT22;6994;49.752;6.094;2023-04-29T09:30:13;14.30;99.90
13848;DHT22;6994;49.752;6.094;2023-04-29T09:32:40;14.20;99.90
13848;DHT22;6994;49.752;6.094;2023-04-29T09:35:26;14.30;99.90
13848;DHT22;6994;49.752;6.094;2023-04-29T09:37:53;14.20;99.90
13848;DHT22;6994;49.752;6.094;2023-04-29T09:40:32;14.00;99.90
13848;DHT22;6994;49.752;6.094;2023-04-29T09:42:59;13.90;99.90
13848;DHT22;6994;49.752;6.094;2023-04-29T09:45:36;13.80;99.90
13848;DHT22;6994;49.752;6.094;2023-04-29T09:48:07;13.70;99.90
13848;DHT22;6994;49.752;6.094;2023-04-29T09:50:30;14.00;99.90
13848;DHT22;6994;49.752;6.094;2023-04-29T09:52:57;14.00;99.90
13848;DHT22;6994;49.752;6.094;2023-04-29T09:55:25;14.00;99.90
13848;DHT22;6994;49.752;6.094;2023-04-29T09:57:54;14.00;99.90
13848;DHT22;6994;49.752;6.094;2023-04-29T10:00:22;13.90;99.90
13848;DHT22;6994;49.752;6.094;2023-04-29T10:02:50;13.90;99.90
13848;DHT22;6994;49.752;6.094;2023-04-29T10:05:17;13.90;99.90
13848;DHT22;6994;49.752;6.094;2023-04-29T10:07:45;14.00;99.90
13848;DHT22;6994;49.752;6.094;2023-04-29T10:10:11;14.00;99.90
13848;DHT22;6994;49.752;6.094;2023-04-29T10:12:39;14.10;99.90
13848;DHT22;6994;49.752;6.094;2023-04-29T10:17:45;14.30;99.90
13848;DHT22;6994;49.752;6.094;2023-04-29T10:20:13;14.30;99.90
13848;DHT22;6994;49.752;6.094;2023-04-29T10:22:46;14.40;99.90
13848;DHT22;6994;49.752;6.094;2023-04-29T10:25:16;14.40;99.90
13848;DHT22;6994;49.752;6.094;2023-04-29T10:27:41;14.50;99.90
13848;DHT22;6994;49.752;6.094;2023-04-29T10:30:06;14.50;99.90
13848;DHT22;6994;49.752;6.094;2023-04-29T10:32:34;14.60;99.90
13848;DHT22;6994;49.752;6.094;2023-04-29T10:35:01;14.60;99.90
13848;DHT22;6994;49.752;6.094;2023-04-29T10:37:28;14.70;99.90
13848;DHT22;6994;49.752;6.094;2023-04-29T10:40:14;15.00;99.90
13848;DHT22;6994;49.752;6.094;2023-04-29T10:42:47;15.00;99.90
13848;DHT22;6994;49.752;6.094;2023-04-29T10:50:32;15.10;99.90
13848;DHT22;6994;49.752;6.094;2023-04-29T10:53:02;15.00;99.90
13848;DHT22;6994;49.752;6.094;2023-04-29T10:55:29;14.90;99.90
13848;DHT22;6994;49.752;6.094;2023-04-29T10:57:56;14.80;99.90
13848;DHT22;6994;49.752;6.094;2023-04-29T11:00:30;14.80;99.90
13848;DHT22;6994;49.752;6.094;2023-04-29T11:03:00;14.80;99.90
13848;DHT22;6994;49.752;6.094;2023-04-29T11:05:33;15.20;99.90
13848;DHT22;6994;49.752;6.094;2023-04-29T11:10:37;15.30;99.90
13848;DHT22;6994;49.752;6.094;2023-04-29T11:13:28;15.30;99.90
13848;DHT22;6994;49.752;6.094;2023-04-29T11:16:05;15.30;99.90
13848;DHT22;6994;49.752;6.094;2023-04-29T11:18:33;15.80;99.90
13848;DHT22;6994;49.752;6.094;2023-04-29T11:23:32;15.60;99.90
13848;DHT22;6994;49.752;6.094;2023-04-29T11:25:57;15.60;99.90
13848;DHT22;6994;49.752;6.094;2023-04-29T11:28:26;15.60;99.90
13848;DHT22;6994;49.752;6.094;2023-04-29T11:30:52;15.60;99.90
13848;DHT22;6994;49.752;6.094;2023-04-29T11:33:20;15.60;99.90
13848;DHT22;6994;49.752;6.094;2023-04-29T11:35:48;15.40;99.90
13848;DHT22;6994;49.752;6.094;2023-04-29T11:38:16;15.40;99.90
13848;DHT22;6994;49.752;6.094;2023-04-29T11:40:49;15.40;99.90
13848;DHT22;6994;49.752;6.094;2023-04-29T11:43:16;15.40;99.90
13848;DHT22;6994;49.752;6.094;2023-04-29T11:45:46;15.70;99.90
13848;DHT22;6994;49.752;6.094;2023-04-29T11:48:19;15.80;99.90
13848;DHT22;6994;49.752;6.094;2023-04-29T11:50:47;15.80;99.90
13848;DHT22;6994;49.752;6.094;2023-04-29T11:53:14;15.70;99.90
13848;DHT22;6994;49.752;6.094;2023-04-29T11:55:41;15.60;99.90
13848;DHT22;6994;49.752;6.094;2023-04-29T11:58:08;15.40;99.90
13848;DHT22;6994;49.752;6.094;2023-04-29T12:00:35;15.30;99.90
13848;DHT22;6994;49.752;6.094;2023-04-29T12:03:12;15.40;99.90
13848;DHT22;6994;49.752;6.094;2023-04-29T12:05:29;15.20;99.90
13848;DHT22;6994;49.752;6.094;2023-04-29T12:07:57;15.30;99.90
13848;DHT22;6994;49.752;6.094;2023-04-29T12:10:24;15.10;99.90
13848;DHT22;6994;49.752;6.094;2023-04-29T12:12:52;14.70;99.90
13848;DHT22;6994;49.752;6.094;2023-04-29T12:15:20;14.60;99.90
13848;DHT22;6994;49.752;6.094;2023-04-29T12:17:48;14.40;99.90
13848;DHT22;6994;49.752;6.094;2023-04-29T12:20:15;14.40;99.90
13848;DHT22;6994;49.752;6.094;2023-04-29T12:22:42;14.30;99.90
13848;DHT22;6994;49.752;6.094;2023-04-29T12:25:10;14.60;99.90
13848;DHT22;6994;49.752;6.094;2023-04-29T12:27:40;14.50;99.90
13848;DHT22;6994;49.752;6.094;2023-04-29T12:30:08;14.50;99.90
13848;DHT22;6994;49.752;6.094;2023-04-29T12:32:35;14.80;99.90
13848;DHT22;6994;49.752;6.094;2023-04-29T12:35:03;14.80;99.90
13848;DHT22;6994;49.752;6.094;2023-04-29T12:37:31;14.70;99.90
13848;DHT22;6994;49.752;6.094;2023-04-29T12:39:57;14.70;99.90
13848;DHT22;6994;49.752;6.094;2023-04-29T12:42:30;14.70;99.90
13848;DHT22;6994;49.752;6.094;2023-04-29T12:44:51;14.80;99.90
13848;DHT22;6994;49.752;6.094;2023-04-29T12:47:19;14.90;99.90
13848;DHT22;6994;49.752;6.094;2023-04-29T12:49:46;15.00;99.90
13848;DHT22;6994;49.752;6.094;2023-04-29T12:52:13;15.10;99.90
13848;DHT22;6994;49.752;6.094;2023-04-29T12:54:40;15.50;99.90
13848;DHT22;6994;49.752;6.094;2023-04-29T12:57:08;15.70;99.90
13848;DHT22;6994;49.752;6.094;2023-04-29T12:59:36;15.80;99.90
13848;DHT22;6994;49.752;6.094;2023-04-29T13:02:03;15.70;99.90
13848;DHT22;6994;49.752;6.094;2023-04-29T13:04:30;15.80;99.90
13848;DHT22;6994;49.752;6.094;2023-04-29T13:06:58;15.90;99.90
13848;DHT22;6994;49.752;6.094;2023-04-29T13:09:28;15.80;99.90
13848;DHT22;6994;49.752;6.094;2023-04-29T13:11:55;15.90;99.90
13848;DHT22;6994;49.752;6.094;2023-04-29T13:14:22;16.30;99.90
13848;DHT22;6994;49.752;6.094;2023-04-29T13:16:50;16.40;99.90
13848;DHT22;6994;49.752;6.094;2023-04-29T13:19:18;16.30;99.90
13848;DHT22;6994;49.752;6.094;2023-04-29T13:21:46;16.10;99.90
13848;DHT22;6994;49.752;6.094;2023-04-29T13:24:13;16.10;99.90
13848;DHT22;6994;49.752;6.094;2023-04-29T13:26:40;15.90;99.90
13848;DHT22;6994;49.752;6.094;2023-04-29T13:29:08;15.30;99.90
13848;DHT22;6994;49.752;6.094;2023-04-29T13:31:35;15.30;99.90
13848;DHT22;6994;49.752;6.094;2023-04-29T13:34:02;15.10;99.90
13848;DHT22;6994;49.752;6.094;2023-04-29T13:36:30;15.00;99.90
13848;DHT22;6994;49.752;6.094;2023-04-29T13:38:57;14.90;99.90
13848;DHT22;6994;49.752;6.094;2023-04-29T13:41:24;14.80;99.90
13848;DHT22;6994;49.752;6.094;2023-04-29T13:43:51;14.70;99.90
13848;DHT22;6994;49.752;6.094;2023-04-29T13:46:18;14.70;99.90
13848;DHT22;6994;49.752;6.094;2023-04-29T13:48:46;14.70;99.90
13848;DHT22;6994;49.752;6.094;2023-04-29T13:51:13;14.70;99.90
13848;DHT22;6994;49.752;6.094;2023-04-29T13:53:41;14.80;99.90
13848;DHT22;6994;49.752;6.094;2023-04-29T13:56:08;14.70;99.90
13848;DHT22;6994;49.752;6.094;2023-04-29T13:58:35;14.80;99.90
13848;DHT22;6994;49.752;6.094;2023-04-29T14:01:03;15.00;99.90
13848;DHT22;6994;49.752;6.094;2023-04-29T14:03:30;15.00;99.90
13848;DHT22;6994;49.752;6.094;2023-04-29T14:05:58;15.10;99.90
13848;DHT22;6994;49.752;6.094;2023-04-29T14:08:25;15.20;99.90
13848;DHT22;6994;49.752;6.094;2023-04-29T14:10:52;15.20;99.90
13848;DHT22;6994;49.752;6.094;2023-04-29T14:13:19;15.30;99.90
13848;DHT22;6994;49.752;6.094;2023-04-29T14:15:46;15.30;99.90
13848;DHT22;6994;49.752;6.094;2023-04-29T14:18:14;15.30;99.90
13848;DHT22;6994;49.752;6.094;2023-04-29T14:20:41;15.20;99.90
13848;DHT22;6994;49.752;6.094;2023-04-29T14:23:08;15.10;99.90
13848;DHT22;6994;49.752;6.094;2023-04-29T14:25:36;14.90;99.90
13848;DHT22;6994;49.752;6.094;2023-04-29T14:28:04;14.90;99.90
13848;DHT22;6994;49.752;6.094;2023-04-29T14:30:32;14.90;99.90
13848;DHT22;6994;49.752;6.094;2023-04-29T14:32:59;14.90;99.90
13848;DHT22;6994;49.752;6.094;2023-04-29T14:35:26;14.90;99.90
13848;DHT22;6994;49.752;6.094;2023-04-29T14:37:54;15.20;99.90
13848;DHT22;6994;49.752;6.094;2023-04-29T14:40:21;15.50;99.90
13848;DHT22;6994;49.752;6.094;2023-04-29T14:42:48;15.50;99.90
13848;DHT22;6994;49.752;6.094;2023-04-29T14:45:15;15.80;99.90
13848;DHT22;6994;49.752;6.094;2023-04-29T14:47:42;15.80;99.90
13848;DHT22;6994;49.752;6.094;2023-04-29T14:50:10;15.80;99.90
13848;DHT22;6994;49.752;6.094;2023-04-29T14:52:37;15.70;99.90
13848;DHT22;6994;49.752;6.094;2023-04-29T14:55:05;15.50;99.90
13848;DHT22;6994;49.752;6.094;2023-04-29T14:57:33;15.50;99.90
13848;DHT22;6994;49.752;6.094;2023-04-29T15:00:00;15.50;99.90
13848;DHT22;6994;49.752;6.094;2023-04-29T15:02:27;15.50;99.90
13848;DHT22;6994;49.752;6.094;2023-04-29T15:04:54;15.50;99.90
13848;DHT22;6994;49.752;6.094;2023-04-29T15:07:22;15.70;99.90
13848;DHT22;6994;49.752;6.094;2023-04-29T15:09:49;15.70;99.90
13848;DHT22;6994;49.752;6.094;2023-04-29T15:12:16;15.90;99.90
13848;DHT22;6994;49.752;6.094;2023-04-29T15:14:43;15.70;99.90
13848;DHT22;6994;49.752;6.094;2023-04-29T15:17:10;15.50;99.90
13848;DHT22;6994;49.752;6.094;2023-04-29T15:19:38;15.30;99.90
13848;DHT22;6994;49.752;6.094;2023-04-29T15:22:05;15.20;99.90
13848;DHT22;6994;49.752;6.094;2023-04-29T15:24:32;15.10;99.90
13848;DHT22;6994;49.752;6.094;2023-04-29T15:26:59;15.10;99.90
13848;DHT22;6994;49.752;6.094;2023-04-29T15:29:26;15.40;99.90
13848;DHT22;6994;49.752;6.094;2023-04-29T15:31:54;15.40;99.90
13848;DHT22;6994;49.752;6.094;2023-04-29T15:34:21;15.40;99.90
13848;DHT22;6994;49.752;6.094;2023-04-29T15:36:48;15.40;99.90
13848;DHT22;6994;49.752;6.094;2023-04-29T15:39:16;15.40;99.90
13848;DHT22;6994;49.752;6.094;2023-04-29T15:41:43;15.40;99.90
13848;DHT22;6994;49.752;6.094;2023-04-29T15:44:10;15.40;99.90
13848;DHT22;6994;49.752;6.094;2023-04-29T15:46:38;15.50;99.90
13848;DHT22;6994;49.752;6.094;2023-04-29T15:49:05;15.50;99.90
13848;DHT22;6994;49.752;6.094;2023-04-29T15:51:32;15.40;99.90
13848;DHT22;6994;49.752;6.094;2023-04-29T15:53:59;15.40;99.90
13848;DHT22;6994;49.752;6.094;2023-04-29T15:56:26;15.50;99.90
13848;DHT22;6994;49.752;6.094;2023-04-29T15:58:54;15.40;99.90
13848;DHT22;6994;49.752;6.094;2023-04-29T16:01:21;15.30;99.90
13848;DHT22;6994;49.752;6.094;2023-04-29T16:03:48;15.20;99.90
13848;DHT22;6994;49.752;6.094;2023-04-29T16:06:15;15.10;99.90
13848;DHT22;6994;49.752;6.094;2023-04-29T16:08:43;14.90;99.90
13848;DHT22;6994;49.752;6.094;2023-04-29T16:11:11;14.80;99.90